Observation data for McLean on 01/20/2019      Previous  Date  Next       Current Mesonet Observations  Soil Data  Daily Summary Page  Observations in Plain Language
KMCS 200600Z 15003KT M04/M05 A3026 RMK A01 T10361053  RH  088%=      5-min Rain = 0
KMCS 200605Z 14004KT M04/M05 A3026 RMK A01 T10361054  RH  088%=      5-min Rain = 0
KMCS 200610Z 14004KT M04/M05 A3027 RMK A01 T10361053  RH  088%=      5-min Rain = 0
KMCS 200615Z 15003KT M03/M05 A3027 RMK A01 T10341052  RH  087%=      5-min Rain = 0
KMCS 200620Z 16004KT M04/M05 A3027 RMK A01 T10351054  RH  087%=      5-min Rain = 0
KMCS 200625Z 17006KT M04/M06 A3026 RMK A01 T10411059  RH  087%=      5-min Rain = 0
KMCS 200630Z 20006KT M05/M06 A3027 RMK A01 T10461062  RH  089%=      5-min Rain = 0
KMCS 200635Z 19004KT M05/M06 A3027 RMK A01 T10461061  RH  089%=      5-min Rain = 0
KMCS 200640Z 19004KT M05/M06 A3027 RMK A01 T10451061  RH  089%=      5-min Rain = 0
KMCS 200645Z 20004KT M05/M06 A3026 RMK A01 T10451060  RH  089%=      5-min Rain = 0
KMCS 200650Z 19005KT M05/M06 A3026 RMK A01 T10451060  RH  089%=      5-min Rain = 0
KMCS 200655Z 20004KT M04/M06 A3026 RMK A01 T10441059  RH  090%=      5-min Rain = 0
KMCS 200700Z 21006KT M04/M06 A3027 RMK A01 T10431058  RH  089%=      5-min Rain = 0
KMCS 200705Z 21005KT M04/M06 A3027 RMK A01 T10431057  RH  090%=      5-min Rain = 0
KMCS 200710Z 21007KT M04/M06 A3027 RMK A01 T10421057  RH  090%=      5-min Rain = 0
KMCS 200715Z 20006KT M04/M06 A3026 RMK A01 T10421057  RH  090%=      5-min Rain = 0
KMCS 200720Z 18006KT M05/M06 A3026 RMK A01 T10461060  RH  090%=      5-min Rain = 0
KMCS 200725Z 18005KT M05/M06 A3026 RMK A01 T10471061  RH  090%=      5-min Rain = 0
KMCS 200730Z 18005KT M05/M06 A3026 RMK A01 T10481061  RH  090%=      5-min Rain = 0
KMCS 200735Z 17004KT M05/M06 A3026 RMK A01 T10491062  RH  091%=      5-min Rain = 0
KMCS 200740Z 18006KT M05/M06 A3026 RMK A01 T10501063  RH  091%=      5-min Rain = 0
KMCS 200745Z 18005KT M05/M06 A3026 RMK A01 T10521063  RH  092%=      5-min Rain = 0
KMCS 200750Z 19005KT M05/M07 A3026 RMK A01 T10531065  RH  091%=      5-min Rain = 0
KMCS 200755Z 19005KT M05/M06 A3027 RMK A01 T10521064  RH  092%=      5-min Rain = 0
KMCS 200800Z 21005KT M05/M06 A3027 RMK A01 T10501063  RH  091%=      5-min Rain = 0
KMCS 200805Z 21006KT M05/M06 A3027 RMK A01 T10491064  RH  090%=      5-min Rain = 0
KMCS 200810Z 20004KT M05/M07 A3026 RMK A01 T10491065  RH  088%=      5-min Rain = 0
KMCS 200815Z 20005KT M05/M07 A3027 RMK A01 T10501067  RH  088%=      5-min Rain = 0
KMCS 200820Z 19005KT M05/M07 A3027 RMK A01 T10511068  RH  088%=      5-min Rain = 0
KMCS 200825Z 18005KT M05/M07 A3026 RMK A01 T10511069  RH  088%=      5-min Rain = 0
KMCS 200830Z 19005KT M05/M07 A3027 RMK A01 T10511069  RH  087%=      5-min Rain = 0
KMCS 200835Z 20005KT M05/M07 A3026 RMK A01 T10511070  RH  086%=      5-min Rain = 0
KMCS 200840Z 20006KT M05/M07 A3026 RMK A01 T10531072  RH  087%=      5-min Rain = 0
KMCS 200845Z 20007KT M05/M07 A3026 RMK A01 T10511071  RH  086%=      5-min Rain = 0
KMCS 200850Z 20006KT M05/M07 A3025 RMK A01 T10511071  RH  086%=      5-min Rain = 0
KMCS 200855Z 19007KT M05/M07 A3026 RMK A01 T10531072  RH  087%=      5-min Rain = 0
KMCS 200900Z 20007KT M05/M07 A3026 RMK A01 T10541073  RH  086%=      5-min Rain = 0
KMCS 200905Z 21008KT M05/M07 A3026 RMK A01 T10501073  RH  084%=      5-min Rain = 0
KMCS 200910Z 21009KT M05/M07 A3026 RMK A01 T10501074  RH  083%=      5-min Rain = 0
KMCS 200915Z 21009KT M05/M08 A3026 RMK A01 T10521076  RH  083%=      5-min Rain = 0
KMCS 200920Z 20009KT M05/M08 A3025 RMK A01 T10531078  RH  083%=      5-min Rain = 0
KMCS 200925Z 20008KT M05/M08 A3025 RMK A01 T10531078  RH  083%=      5-min Rain = 0
KMCS 200930Z 20010KT M05/M08 A3025 RMK A01 T10501077  RH  081%=      5-min Rain = 0
KMCS 200935Z 20010KT M05/M08 A3024 RMK A01 T10481077  RH  080%=      5-min Rain = 0
KMCS 200940Z 20009KT M05/M08 A3024 RMK A01 T10481077  RH  080%=      5-min Rain = 0
KMCS 200945Z 19009KT M05/M08 A3024 RMK A01 T10491078  RH  080%=      5-min Rain = 0
KMCS 200950Z 20008KT M05/M08 A3024 RMK A01 T10501077  RH  081%=      5-min Rain = 0
KMCS 200955Z 20010KT M05/M08 A3024 RMK A01 T10481077  RH  080%=      5-min Rain = 0
KMCS 201000Z 20011KT M05/M08 A3023 RMK A01 T10461077  RH  079%=      5-min Rain = 0
KMCS 201005Z 20011KT M05/M08 A3024 RMK A01 T10481075  RH  081%=      5-min Rain = 0
KMCS 201010Z 20010KT M05/M07 A3024 RMK A01 T10471074  RH  081%=      5-min Rain = 0
KMCS 201015Z 20011KT M05/M08 A3024 RMK A01 T10461075  RH  080%=      5-min Rain = 0
KMCS 201020Z 20011KT M05/M08 A3024 RMK A01 T10451075  RH  080%=      5-min Rain = 0
KMCS 201025Z 20012KT M05/M08 A3023 RMK A01 T10451075  RH  079%=      5-min Rain = 0
KMCS 201030Z 20010KT M05/M08 A3023 RMK A01 T10451075  RH  079%=      5-min Rain = 0
KMCS 201035Z 20011G16KT M04/M08 A3023 RMK A01 T10441076  RH  079%=      5-min Rain = 0
KMCS 201040Z 20012KT M04/M08 A3023 RMK A01 T10441077  RH  077%=      5-min Rain = 0
KMCS 201045Z 20012KT M04/M08 A3023 RMK A01 T10431079  RH  076%=      5-min Rain = 0
KMCS 201050Z 20012KT M04/M08 A3023 RMK A01 T10441079  RH  076%=      5-min Rain = 0
KMCS 201055Z 20011KT M05/M08 A3023 RMK A01 T10451079  RH  077%=      5-min Rain = 0
KMCS 201100Z 21012G17KT M05/M08 A3023 RMK A01 T10451080  RH  077%=      5-min Rain = 0
KMCS 201105Z 21012KT M05/M08 A3023 RMK A01 T10451080  RH  076%=      5-min Rain = 0
KMCS 201110Z 21011KT M05/M08 A3023 RMK A01 T10461081  RH  076%=      5-min Rain = 0
KMCS 201115Z 21012KT M05/M08 A3022 RMK A01 T10471082  RH  076%=      5-min Rain = 0
KMCS 201120Z 21011KT M05/M08 A3022 RMK A01 T10471082  RH  077%=      5-min Rain = 0
KMCS 201125Z 21011KT M05/M08 A3022 RMK A01 T10481082  RH  077%=      5-min Rain = 0
KMCS 201130Z 21010KT M05/M08 A3022 RMK A01 T10481082  RH  077%=      5-min Rain = 0
KMCS 201135Z 21010KT M05/M08 A3022 RMK A01 T10471082  RH  077%=      5-min Rain = 0
KMCS 201140Z 21010KT M05/M08 A3022 RMK A01 T10461082  RH  076%=      5-min Rain = 0
KMCS 201145Z 21010KT M05/M08 A3021 RMK A01 T10451083  RH  075%=      5-min Rain = 0
KMCS 201150Z 21011KT M05/M08 A3021 RMK A01 T10451083  RH  075%=      5-min Rain = 0
KMCS 201155Z 21010KT M05/M08 A3021 RMK A01 T10451083  RH  074%=      5-min Rain = 0
KMCS 201200Z 21010KT M05/M08 A3021 RMK A01 T10451083  RH  075%=      5-min Rain = 0
KMCS 201205Z 21009KT M05/M08 A3021 RMK A01 T10461083  RH  075%=      5-min Rain = 0
KMCS 201210Z 21009KT M05/M08 A302 RMK A01 T10461083  RH  075%=      5-min Rain = 0
KMCS 201215Z 20009KT M05/M08 A302 RMK A01 T10461082  RH  075%=      5-min Rain = 0
KMCS 201220Z 20010KT M05/M08 A3019 RMK A01 T10461082  RH  076%=      5-min Rain = 0
KMCS 201225Z 20010KT M05/M08 A3019 RMK A01 T10471082  RH  077%=      5-min Rain = 0
KMCS 201230Z 20010KT M05/M08 A3019 RMK A01 T10471081  RH  077%=      5-min Rain = 0
KMCS 201235Z 20010KT M05/M08 A3019 RMK A01 T10461082  RH  076%=      5-min Rain = 0
KMCS 201240Z 20011KT M05/M08 A3019 RMK A01 T10471082  RH  076%=      5-min Rain = 0
KMCS 201245Z 20010KT M05/M08 A3019 RMK A01 T10471082  RH  077%=      5-min Rain = 0
KMCS 201250Z 20010KT M05/M08 A3019 RMK A01 T10481083  RH  077%=      5-min Rain = 0
KMCS 201255Z 20008KT M05/M08 A302 RMK A01 T10491083  RH  077%=      5-min Rain = 0
KMCS 201300Z 19009KT M05/M08 A302 RMK A01 T10491083  RH  077%=      5-min Rain = 0
KMCS 201305Z 19009KT M05/M08 A302 RMK A01 T10491083  RH  077%=      5-min Rain = 0
KMCS 201310Z 19009KT M05/M08 A3019 RMK A01 T10491083  RH  077%=      5-min Rain = 0
KMCS 201315Z 20010KT M05/M08 A3019 RMK A01 T10471083  RH  076%=      5-min Rain = 0
KMCS 201320Z 20012KT M04/M08 A3019 RMK A01 T10421082  RH  074%=      5-min Rain = 0
KMCS 201325Z 21012G17KT M04/M08 A3019 RMK A01 T10391082  RH  072%=      5-min Rain = 0
KMCS 201330Z 21013KT M04/M08 A3019 RMK A01 T10381083  RH  071%=      5-min Rain = 0
KMCS 201335Z 21013G18KT M04/M08 A3019 RMK A01 T10361083  RH  070%=      5-min Rain = 0
KMCS 201340Z 21013G18KT M03/M08 A302 RMK A01 T10341083  RH  069%=      5-min Rain = 0
KMCS 201345Z 21013G18KT M03/M08 A3019 RMK A01 T10331083  RH  068%=      5-min Rain = 0
KMCS 201350Z 21014G19KT M03/M08 A3019 RMK A01 T10321082  RH  068%=      5-min Rain = 0
KMCS 201355Z 21014KT M03/M08 A3019 RMK A01 T10321083  RH  068%=      5-min Rain = 0
KMCS 201400Z 21014G19KT M03/M08 A3019 RMK A01 T10321083  RH  068%=      5-min Rain = 0
KMCS 201405Z 21014G19KT M03/M08 A3019 RMK A01 T10321082  RH  068%=      5-min Rain = 0
KMCS 201410Z 21013KT M03/M08 A3019 RMK A01 T10331082  RH  068%=      5-min Rain = 0
KMCS 201415Z 21013KT M03/M08 A3019 RMK A01 T10321082  RH  068%=      5-min Rain = 0
KMCS 201420Z 21013G18KT M03/M08 A3019 RMK A01 T10311081  RH  068%=      5-min Rain = 0
KMCS 201425Z 21012KT M03/M08 A3018 RMK A01 T10301080  RH  068%=      5-min Rain = 0
KMCS 201430Z 21012KT M03/M08 A3018 RMK A01 T10271079  RH  067%=      5-min Rain = 0
KMCS 201435Z 21012KT M02/M08 A3019 RMK A01 T10241078  RH  066%=      5-min Rain = 0
KMCS 201440Z 21013KT M02/M08 A3019 RMK A01 T10221078  RH  066%=      5-min Rain = 0
KMCS 201445Z 20012KT M02/M08 A3018 RMK A01 T10211077  RH  066%=      5-min Rain = 0
KMCS 201450Z 21012KT M02/M08 A3018 RMK A01 T10211076  RH  066%=      5-min Rain = 0
KMCS 201455Z 21012KT M02/M08 A3018 RMK A01 T10191075  RH  066%=      5-min Rain = 0
KMCS 201500Z 20011KT M02/M07 A3017 RMK A01 T10171073  RH  066%=      5-min Rain = 0
KMCS 201505Z 21011G16KT M02/M07 A3017 RMK A01 T10161072  RH  065%=      5-min Rain = 0
KMCS 201510Z 20012KT M01/M07 A3017 RMK A01 T10141071  RH  065%=      5-min Rain = 0
KMCS 201515Z 20012G17KT M01/M07 A3018 RMK A01 T10131069  RH  065%=      5-min Rain = 0
KMCS 201520Z 20013KT M01/M07 A3017 RMK A01 T10121068  RH  066%=      5-min Rain = 0
KMCS 201525Z 20013G18KT M01/M07 A3017 RMK A01 T10111068  RH  065%=      5-min Rain = 0
KMCS 201530Z 20012G17KT M01/M07 A3018 RMK A01 T10101067  RH  065%=      5-min Rain = 0
KMCS 201535Z 21011KT M01/M07 A3018 RMK A01 T10091066  RH  066%=      5-min Rain = 0
KMCS 201540Z 21010KT M01/M06 A3018 RMK A01 T10071064  RH  065%=      5-min Rain = 0
KMCS 201545Z 21008G13KT M01/M06 A3019 RMK A01 T10051063  RH  065%=      5-min Rain = 0
KMCS 201550Z 21009KT M00/M06 A3019 RMK A01 T10031062  RH  065%=      5-min Rain = 0
KMCS 201555Z 21010KT M00/M06 A3019 RMK A01 T10011061  RH  064%=      5-min Rain = 0
KMCS 201600Z 21011KT 00/M06 A3018 RMK A01 T00021060  RH  063%=      5-min Rain = 0
KMCS 201605Z 21011KT 01/M06 A3018 RMK A01 T00051059  RH  063%=      5-min Rain = 0
KMCS 201610Z 21010KT 01/M06 A3018 RMK A01 T00071058  RH  062%=      5-min Rain = 0
KMCS 201615Z 20011KT 01/M06 A3019 RMK A01 T00101057  RH  061%=      5-min Rain = 0
KMCS 201620Z 20011KT 01/M06 A3019 RMK A01 T00131056  RH  061%=      5-min Rain = 0
KMCS 201625Z 20011KT 02/M05 A3018 RMK A01 T00171054  RH  060%=      5-min Rain = 0
KMCS 201630Z 20012G17KT 02/M05 A3018 RMK A01 T00191054  RH  059%=      5-min Rain = 0
KMCS 201635Z 19013KT 02/M05 A3018 RMK A01 T00211054  RH  058%=      5-min Rain = 0
KMCS 201640Z 20014KT 02/M05 A3018 RMK A01 T00241052  RH  057%=      5-min Rain = 0
KMCS 201645Z 20015KT 03/M05 A3018 RMK A01 T00271053  RH  056%=      5-min Rain = 0
KMCS 201650Z 20015KT 03/M05 A3018 RMK A01 T00281053  RH  056%=      5-min Rain = 0
KMCS 201655Z 19015KT 03/M05 A3018 RMK A01 T00301052  RH  055%=      5-min Rain = 0
KMCS 201700Z 19012G17KT 03/M05 A3018 RMK A01 T00331051  RH  054%=      5-min Rain = 0
KMCS 201705Z 18012KT 03/M05 A3017 RMK A01 T00331051  RH  054%=      5-min Rain = 0
KMCS 201710Z 18011KT 04/M05 A3017 RMK A01 T00361049  RH  054%=      5-min Rain = 0
KMCS 201715Z 19011G16KT 04/M05 A3017 RMK A01 T00391049  RH  053%=      5-min Rain = 0
KMCS 201720Z 19012G17KT 04/M05 A3017 RMK A01 T00401049  RH  052%=      5-min Rain = 0
KMCS 201725Z 19013KT 04/M05 A3017 RMK A01 T00401049  RH  052%=      5-min Rain = 0
KMCS 201730Z 19011KT 04/M05 A3017 RMK A01 T00421048  RH  052%=      5-min Rain = 0
KMCS 201735Z 18010KT 05/M05 A3017 RMK A01 T00471047  RH  051%=      5-min Rain = 0
KMCS 201740Z 19012KT 05/M05 A3017 RMK A01 T00481047  RH  050%=      5-min Rain = 0
KMCS 201745Z 19011KT 05/M05 A3017 RMK A01 T00501046  RH  050%=      5-min Rain = 0
KMCS 201750Z 19012G17KT 05/M05 A3017 RMK A01 T00541045  RH  049%=      5-min Rain = 0
KMCS 201755Z 19010KT 06/M04 A3017 RMK A01 T00591044  RH  048%=      5-min Rain = 0
KMCS 201800Z 19011G16KT 06/M05 A3016 RMK A01 T00601045  RH  047%=      5-min Rain = 0
KMCS 201805Z 19012KT 06/M05 A3016 RMK A01 T00621046  RH  046%=      5-min Rain = 0
KMCS 201810Z 18010G16KT 06/M05 A3016 RMK A01 T00601047  RH  046%=      5-min Rain = 0
KMCS 201815Z 18008KT 06/M05 A3015 RMK A01 T00641045  RH  046%=      5-min Rain = 0
KMCS 201820Z 19010KT 07/M05 A3015 RMK A01 T00651046  RH  045%=      5-min Rain = 0
KMCS 201825Z 18011G17KT 07/M05 A3015 RMK A01 T00701045  RH  044%=      5-min Rain = 0
KMCS 201830Z 19013KT 07/M05 A3015 RMK A01 T00681046  RH  044%=      5-min Rain = 0
KMCS 201835Z 19013G18KT 07/M04 A3014 RMK A01 T00741044  RH  043%=      5-min Rain = 0
KMCS 201840Z 19012KT 08/M04 A3014 RMK A01 T00761044  RH  042%=      5-min Rain = 0
KMCS 201845Z 19012KT 08/M04 A3014 RMK A01 T00771044  RH  042%=      5-min Rain = 0
KMCS 201850Z 19012KT 08/M04 A3014 RMK A01 T00791043  RH  042%=      5-min Rain = 0
KMCS 201855Z 20012G18KT 08/M04 A3014 RMK A01 T00791044  RH  042%=      5-min Rain = 0
KMCS 201900Z 19012KT 08/M04 A3014 RMK A01 T00781044  RH  042%=      5-min Rain = 0
KMCS 201905Z 19012KT 08/M04 A3013 RMK A01 T00801044  RH  041%=      5-min Rain = 0
KMCS 201910Z 19012KT 08/M04 A3013 RMK A01 T00831042  RH  041%=      5-min Rain = 0
KMCS 201915Z 19012G19KT 08/M04 A3013 RMK A01 T00841043  RH  040%=      5-min Rain = 0
KMCS 201920Z 21011G16KT 08/M04 A3012 RMK A01 T00801044  RH  041%=      5-min Rain = 0
KMCS 201925Z 20011G16KT 08/M04 A3012 RMK A01 T00811043  RH  041%=      5-min Rain = 0
KMCS 201930Z 20011KT 09/M04 A3012 RMK A01 T00851042  RH  041%=      5-min Rain = 0
KMCS 201935Z 19011KT 09/M04 A3012 RMK A01 T00901042  RH  039%=      5-min Rain = 0
KMCS 201940Z 19011G16KT 09/M04 A3011 RMK A01 T00881042  RH  040%=      5-min Rain = 0
KMCS 201945Z 19010KT 09/M04 A3011 RMK A01 T00881041  RH  040%=      5-min Rain = 0
KMCS 201950Z 20012KT 09/M04 A301 RMK A01 T00891041  RH  040%=      5-min Rain = 0
KMCS 201955Z 19009G15KT 09/M04 A301 RMK A01 T00921040  RH  040%=      5-min Rain = 0
KMCS 202000Z 19010KT 09/M04 A301 RMK A01 T00921040  RH  039%=      5-min Rain = 0
KMCS 202005Z 19010G16KT 09/M04 A301 RMK A01 T00911041  RH  039%=      5-min Rain = 0
KMCS 202010Z 19010KT 09/M04 A301 RMK A01 T00921039  RH  040%=      5-min Rain = 0
KMCS 202015Z 19011KT 10/M04 A3009 RMK A01 T00951038  RH  039%=      5-min Rain = 0
KMCS 202020Z 20010KT 09/M04 A3009 RMK A01 T00941038  RH  039%=      5-min Rain = 0
KMCS 202025Z 19011G17KT 10/M04 A3008 RMK A01 T00961038  RH  039%=      5-min Rain = 0
KMCS 202030Z 20011KT 10/M04 A3008 RMK A01 T00951038  RH  039%=      5-min Rain = 0
KMCS 202035Z 19011KT 10/M04 A3008 RMK A01 T00991036  RH  039%=      5-min Rain = 0
KMCS 202040Z 18010G15KT 10/M04 A3008 RMK A01 T00951037  RH  039%=      5-min Rain = 0
KMCS 202045Z 18009KT 09/M04 A3008 RMK A01 T00921038  RH  040%=      5-min Rain = 0
KMCS 202050Z 17010KT 09/M04 A3007 RMK A01 T00901038  RH  041%=      5-min Rain = 0
KMCS 202055Z 17009KT 09/M04 A3007 RMK A01 T00891038  RH  041%=      5-min Rain = 0
KMCS 202100Z 17009KT 09/M04 A3007 RMK A01 T00891037  RH  041%=      5-min Rain = 0
KMCS 202105Z 17008KT 09/M04 A3007 RMK A01 T00901036  RH  041%=      5-min Rain = 0
KMCS 202110Z 17008G13KT 09/M04 A3007 RMK A01 T00901036  RH  041%=      5-min Rain = 0
KMCS 202115Z 18008KT 09/M04 A3006 RMK A01 T00921035  RH  041%=      5-min Rain = 0
KMCS 202120Z 18009KT 09/M04 A3006 RMK A01 T00921035  RH  041%=      5-min Rain = 0
KMCS 202125Z 18010G15KT 09/M03 A3006 RMK A01 T00931034  RH  041%=      5-min Rain = 0
KMCS 202130Z 17008KT 09/M03 A3006 RMK A01 T00941033  RH  041%=      5-min Rain = 0
KMCS 202135Z 18010KT 10/M03 A3006 RMK A01 T00971033  RH  040%=      5-min Rain = 0
KMCS 202140Z 18010KT 10/M03 A3006 RMK A01 T00971033  RH  040%=      5-min Rain = 0
KMCS 202145Z 15010KT 09/M04 A3006 RMK A01 T00941035  RH  040%=      5-min Rain = 0
KMCS 202150Z 16010KT 09/M04 A3006 RMK A01 T00931035  RH  041%=      5-min Rain = 0
KMCS 202155Z 16010KT 09/M04 A3006 RMK A01 T00921035  RH  041%=      5-min Rain = 0
KMCS 202200Z 16010KT 09/M04 A3006 RMK A01 T00901036  RH  041%=      5-min Rain = 0
KMCS 202205Z 16010KT 09/M04 A3006 RMK A01 T00901035  RH  041%=      5-min Rain = 0
KMCS 202210Z 16008G13KT 09/M04 A3005 RMK A01 T00901035  RH  041%=      5-min Rain = 0
KMCS 202215Z 15010KT 09/M04 A3005 RMK A01 T00891035  RH  042%=      5-min Rain = 0
KMCS 202220Z 15008KT 09/M03 A3005 RMK A01 T00891034  RH  042%=      5-min Rain = 0
KMCS 202225Z 16008KT 09/M04 A3005 RMK A01 T00901035  RH  042%=      5-min Rain = 0
KMCS 202230Z 15009KT 09/M04 A3005 RMK A01 T00901035  RH  041%=      5-min Rain = 0
KMCS 202235Z 15011KT 09/M04 A3005 RMK A01 T00871036  RH  042%=      5-min Rain = 0
KMCS 202240Z 15011KT 09/M04 A3005 RMK A01 T00851037  RH  042%=      5-min Rain = 0
KMCS 202245Z 14009KT 09/M04 A3005 RMK A01 T00861037  RH  042%=      5-min Rain = 0
KMCS 202250Z 14011KT 09/M04 A3005 RMK A01 T00851037  RH  042%=      5-min Rain = 0
KMCS 202255Z 14011G16KT 08/M04 A3004 RMK A01 T00841038  RH  042%=      5-min Rain = 0
KMCS 202300Z 14010G15KT 08/M04 A3004 RMK A01 T00821038  RH  043%=      5-min Rain = 0
KMCS 202305Z 14011KT 08/M04 A3004 RMK A01 T00801039  RH  043%=      5-min Rain = 0
KMCS 202310Z 14011KT 08/M04 A3003 RMK A01 T00791039  RH  043%=      5-min Rain = 0
KMCS 202315Z 14010KT 08/M04 A3003 RMK A01 T00781039  RH  044%=      5-min Rain = 0
KMCS 202320Z 14010KT 08/M04 A3003 RMK A01 T00771039  RH  044%=      5-min Rain = 0
KMCS 202325Z 14011KT 08/M04 A3003 RMK A01 T00761039  RH  044%=      5-min Rain = 0
KMCS 202330Z 14010KT 07/M04 A3003 RMK A01 T00741038  RH  045%=      5-min Rain = 0
KMCS 202335Z 15011KT 07/M04 A3003 RMK A01 T00731038  RH  045%=      5-min Rain = 0
KMCS 202340Z 14009KT 07/M04 A3003 RMK A01 T00711038  RH  046%=      5-min Rain = 0
KMCS 202345Z 15009KT 07/M04 A3003 RMK A01 T00691038  RH  046%=      5-min Rain = 0
KMCS 202350Z 15009KT 07/M04 A3002 RMK A01 T00681038  RH  047%=      5-min Rain = 0
KMCS 202355Z 15009KT 07/M04 A3003 RMK A01 T00661038  RH  048%=      5-min Rain = 0
KMCS 210000Z 14009KT 06/M04 A3003 RMK A01 T00641038  RH  048%=      5-min Rain = 0
KMCS 210005Z 14010KT 06/M04 A3003 RMK A01 T00621038  RH  049%=      5-min Rain = 0
KMCS 210010Z 14010G16KT 06/M04 A3002 RMK A01 T00591039  RH  050%=      5-min Rain = 0
KMCS 210015Z 13010G15KT 06/M04 A3002 RMK A01 T00571039  RH  050%=      5-min Rain = 0
KMCS 210020Z 13011G16KT 05/M04 A3002 RMK A01 T00531040  RH  052%=      5-min Rain = 0
KMCS 210025Z 13011KT 05/M04 A3002 RMK A01 T00501041  RH  052%=      5-min Rain = 0
KMCS 210030Z 13011G16KT 05/M04 A3002 RMK A01 T00481041  RH  053%=      5-min Rain = 0
KMCS 210035Z 14011KT 05/M04 A3002 RMK A01 T00461041  RH  053%=      5-min Rain = 0
KMCS 210040Z 14010KT 05/M04 A3002 RMK A01 T00461041  RH  054%=      5-min Rain = 0
KMCS 210045Z 14010KT 04/M04 A3002 RMK A01 T00441041  RH  054%=      5-min Rain = 0
KMCS 210050Z 14010KT 04/M04 A3002 RMK A01 T00431041  RH  055%=      5-min Rain = 0
KMCS 210055Z 14009KT 04/M04 A3003 RMK A01 T00411041  RH  055%=      5-min Rain = 0
KMCS 210100Z 13010KT 04/M04 A3003 RMK A01 T00391041  RH  056%=      5-min Rain = 0
KMCS 210105Z 13009KT 04/M04 A3003 RMK A01 T00371041  RH  057%=      5-min Rain = 0
KMCS 210110Z 14009G14KT 04/M04 A3003 RMK A01 T00351041  RH  058%=      5-min Rain = 0
KMCS 210115Z 14011KT 04/M04 A3003 RMK A01 T00351041  RH  058%=      5-min Rain = 0
KMCS 210120Z 14010KT 03/M04 A3002 RMK A01 T00341041  RH  058%=      5-min Rain = 0
KMCS 210125Z 14010KT 03/M04 A3002 RMK A01 T00321041  RH  059%=      5-min Rain = 0
KMCS 210130Z 14011KT 03/M04 A3002 RMK A01 T00321041  RH  059%=      5-min Rain = 0
KMCS 210135Z 14010KT 03/M04 A3002 RMK A01 T00311041  RH  059%=      5-min Rain = 0
KMCS 210140Z 13009KT 03/M04 A3002 RMK A01 T00301041  RH  060%=      5-min Rain = 0
KMCS 210145Z 13009KT 03/M04 A3002 RMK A01 T00281041  RH  061%=      5-min Rain = 0
KMCS 210150Z 13009KT 03/M04 A3003 RMK A01 T00251042  RH  061%=      5-min Rain = 0
KMCS 210155Z 13010KT 02/M04 A3002 RMK A01 T00241042  RH  062%=      5-min Rain = 0
KMCS 210200Z 13010KT 02/M04 A3002 RMK A01 T00241041  RH  062%=      5-min Rain = 0
KMCS 210205Z 13009KT 02/M04 A3002 RMK A01 T00221042  RH  063%=      5-min Rain = 0
KMCS 210210Z 13010KT 02/M04 A3002 RMK A01 T00211042  RH  063%=      5-min Rain = 0
KMCS 210215Z 12009KT 02/M04 A3002 RMK A01 T00201042  RH  064%=      5-min Rain = 0
KMCS 210220Z 12010KT 02/M04 A3002 RMK A01 T00191041  RH  065%=      5-min Rain = 0
KMCS 210225Z 12009KT 02/M04 A3002 RMK A01 T00181041  RH  065%=      5-min Rain = 0
KMCS 210230Z 13009KT 02/M04 A3002 RMK A01 T00161041  RH  066%=      5-min Rain = 0
KMCS 210235Z 13010KT 02/M04 A3002 RMK A01 T00151040  RH  067%=      5-min Rain = 0
KMCS 210240Z 13009KT 01/M04 A3002 RMK A01 T00131040  RH  068%=      5-min Rain = 0
KMCS 210245Z 14009KT 01/M04 A3002 RMK A01 T00121040  RH  069%=      5-min Rain = 0
KMCS 210250Z 14008KT 01/M04 A3001 RMK A01 T00111040  RH  069%=      5-min Rain = 0
KMCS 210255Z 14009KT 01/M04 A3001 RMK A01 T00111039  RH  070%=      5-min Rain = 0
KMCS 210300Z 14009KT 01/M04 A3001 RMK A01 T00111039  RH  070%=      5-min Rain = 0
KMCS 210305Z 14008KT 01/M04 A3001 RMK A01 T00101039  RH  070%=      5-min Rain = 0
KMCS 210310Z 14008KT 01/M04 A3001 RMK A01 T00101039  RH  070%=      5-min Rain = 0
KMCS 210315Z 14009KT 01/M04 A3001 RMK A01 T00091039  RH  070%=      5-min Rain = 0
KMCS 210320Z 14009KT 01/M04 A3001 RMK A01 T00091040  RH  070%=      5-min Rain = 0
KMCS 210325Z 14009KT 01/M04 A30 RMK A01 T00091040  RH  070%=      5-min Rain = 0
KMCS 210330Z 15009KT 01/M04 A30 RMK A01 T00091040  RH  070%=      5-min Rain = 0
KMCS 210335Z 14010KT 01/M04 A30 RMK A01 T00081041  RH  070%=      5-min Rain = 0
KMCS 210340Z 15010KT 01/M04 A2999 RMK A01 T00081041  RH  070%=      5-min Rain = 0
KMCS 210345Z 15011KT 01/M04 A2999 RMK A01 T00081041  RH  070%=      5-min Rain = 0
KMCS 210350Z 15011KT 01/M04 A2999 RMK A01 T00071041  RH  070%=      5-min Rain = 0
KMCS 210355Z 15011KT 01/M04 A2999 RMK A01 T00071041  RH  071%=      5-min Rain = 0
KMCS 210400Z 15011KT 01/M04 A2999 RMK A01 T00061041  RH  071%=      5-min Rain = 0
KMCS 210405Z 15011KT 01/M04 A2998 RMK A01 T00061041  RH  071%=      5-min Rain = 0
KMCS 210410Z 15010KT 01/M04 A2998 RMK A01 T00061041  RH  071%=      5-min Rain = 0
KMCS 210415Z 15010KT 01/M04 A2998 RMK A01 T00051041  RH  072%=      5-min Rain = 0
KMCS 210420Z 15010KT 01/M04 A2998 RMK A01 T00051041  RH  072%=      5-min Rain = 0
KMCS 210425Z 15010KT 01/M04 A2998 RMK A01 T00051041  RH  072%=      5-min Rain = 0
KMCS 210430Z 15010KT 00/M04 A2998 RMK A01 T00041041  RH  072%=      5-min Rain = 0
KMCS 210435Z 15010KT 01/M04 A2998 RMK A01 T00051041  RH  072%=      5-min Rain = 0
KMCS 210440Z 15010KT 01/M04 A2998 RMK A01 T00061041  RH  071%=      5-min Rain = 0
KMCS 210445Z 15010KT 01/M04 A2998 RMK A01 T00071041  RH  071%=      5-min Rain = 0
KMCS 210450Z 15010KT 01/M04 A2998 RMK A01 T00071041  RH  070%=      5-min Rain = 0
KMCS 210455Z 15010KT 01/M04 A2998 RMK A01 T00071042  RH  070%=      5-min Rain = 0
KMCS 210500Z 14010KT 01/M04 A2998 RMK A01 T00061042  RH  071%=      5-min Rain = 0
KMCS 210505Z 15010KT 00/M04 A2998 RMK A01 T00041043  RH  071%=      5-min Rain = 0
KMCS 210510Z 15009KT 00/M04 A2998 RMK A01 T00031043  RH  071%=      5-min Rain = 0
KMCS 210515Z 14010KT 00/M04 A2998 RMK A01 T00021043  RH  072%=      5-min Rain = 0
KMCS 210520Z 15010KT 00/M04 A2998 RMK A01 T00021044  RH  072%=      5-min Rain = 0
KMCS 210525Z 15009KT 00/M04 A2998 RMK A01 T00011044  RH  072%=      5-min Rain = 0
KMCS 210530Z 15008KT 00/M05 A2998 RMK A01 T00011045  RH  072%=      5-min Rain = 0
KMCS 210535Z 15007KT 00/M05 A2998 RMK A01 T00011045  RH  072%=      5-min Rain = 0
KMCS 210540Z 15006KT 00/05 A2998 RMK A01 T00-00-45  RH  072%=      5-min Rain = 0
KMCS 210545Z 14006KT M00/M05 A2998 RMK A01 T10011046  RH  072%=      5-min Rain = 0
KMCS 210550Z 15006KT M00/M05 A2998 RMK A01 T10021046  RH  072%=      5-min Rain = 0
KMCS 210555Z 15007KT M00/M05 A2997 RMK A01 T10021046  RH  073%=      5-min Rain = 0

Page generated in 0.0102 seconds.